METAR France - 23 Oct 2017 - 0948 UTC - RocketRoute WX - rrwx.com
LFLB 230930Z AUTO VRB03KT 9999 BKN048 BKN062 12/07 Q1026 NOSIG LFBZ 230930Z AUTO 12003KT 080V170 CAVOK 17/11 Q1028 NOSIG LFLC 230930Z AUTO 32006KT 9999 FEW027 BKN039 OVC046 12/06 Q1026 NOSIG LFSB 230930Z 26011KT 9999 SCT013 BKN046 BKN083 11/08 Q1023 TEMPO 27010G20KT LFBL 230930Z AUTO 21004KT 190V260 CAVOK 10/09 Q1027 NOSIG LFBI 230930Z AUTO 20008KT 9999 BKN041 BKN048 OVC064 13/10 Q1026 NOSIG LFBO 230930Z AUTO 26004KT 190V290 9999 FEW019 OVC100 15/08 Q1027 NOSIG LFRB 230930Z AUTO 23016KT 190V250 5000 -DZ BR OVC004/// ///TCU 14/14 Q1021 TEMPO 22015G25KT OVC002 LFLY 230930Z AUTO 00000KT CAVOK 12/08 Q1026 NOSIG LFRK 230930Z AUTO 22010KT 9999 BKN012 OVC052 13/12 Q1022 TEMPO RA BECMG BKN015 LFMN 230930Z 32006KT CAVOK 20/M05 Q1015 NOSIG LFST 230930Z AUTO 21007KT 180V240 CAVOK 12/09 Q1022 NOSIG LFTW 230930Z AUTO 35014KT 320V030 CAVOK 17/03 Q1023 NOSIG LFRH 230930Z AUTO 23013KT 7000 -DZ BKN013 BKN020 OVC028 15/14 Q1023 TEMPO 3000 -RADZ BKN005 LFPB 230930Z AUTO 24007KT CAVOK 12/09 Q1023 NOSIG LFQQ 230930Z AUTO 22011KT 9999 FEW025 BKN054 OVC068 12/10 Q1020 TEMPO 4000 -RA BKN008 OVC020 LFAT 230930Z AUTO 25006KT 220V310 9999 BKN013 BKN020 OVC028 14/13 Q1020 TEMPO 2000 RADZ OVC005 LFMT 230930Z AUTO 32014KT CAVOK 17/04 Q1024 NOSIG LFBD 230930Z AUTO 20005KT 160V230 CAVOK 16/12 Q1027 NOSIG LFRS 230930Z AUTO 22006KT 190V250 CAVOK 16/13 Q1024 NOSIG LFKJ 230930Z 18004KT 110V250 9999 FEW023 20/08 Q1016 NOSIG LFPG 230930Z 23008KT 200V280 9999 FEW015 BKN053 12/10 Q1023 NOSIG LFPO 230930Z 24005KT 9999 FEW040 OVC060 12/09 Q1023 NOSIG LFRD 230930Z AUTO 20010KT 6000 -DZ BKN007 BKN011 BKN017 13/13 Q1022 TEMPO RA BECMG BKN015 LFKB 230930Z 31014G32KT 230V020 9999 FEW030 22/M00 Q1014 NOSIG LFML 230930Z AUTO 32025KT CAVOK 16/05 Q1021 TEMPO 33031G45KT LFMP 230930Z AUTO 32017KT 290V350 CAVOK 18/06 Q1025 TEMPO 32018G30KT LFLL 230930Z VRB02KT 9999 FEW009 SCT036 BKN066 11/07 Q1026 NOSIG LFRN 230930Z AUTO 19008KT 9999 FEW018 OVC047 14/13 Q1023 TEMPO RA LFOB 230930Z AUTO 24010KT 9999 FEW010 BKN052 OVC076 12/10 Q1022 TEMPO 4000 RA BKN008 BKN030 LFPN 230930Z AUTO 25009KT 9999 FEW038 BKN062 OVC084 12/09 Q1023 TEMPO 4000 -RADZ BKN008 LFOT 230930Z AUTO 23007KT 3800 -RA BR SCT017 BKN025 BKN035 12/10 Q1025 TEMPO BKN012 BECMG 9999 NSW

RocketRoute WX - rrwx.com weather for pilots